createdAt,value
2022-11-14T00:02:28.141Z,12.77
2022-11-14T00:05:13.131Z,11.10
2022-11-14T00:07:57.796Z,12.07
2022-11-14T00:10:42.803Z,11.77
2022-11-14T00:13:27.604Z,12.20
2022-11-14T00:16:12.390Z,12.25
2022-11-14T00:18:57.273Z,12.80
2022-11-14T00:21:41.993Z,11.38
2022-11-14T00:24:27.029Z,11.77
2022-11-14T00:27:12.541Z,12.48
2022-11-14T00:29:57.458Z,11.75
2022-11-14T00:32:42.337Z,11.70
2022-11-14T00:35:27.358Z,10.15
2022-11-14T00:38:12.222Z,9.80
2022-11-14T00:40:57.008Z,7.78
2022-11-14T00:43:41.835Z,7.07
2022-11-14T00:46:26.541Z,7.80
2022-11-14T00:49:11.448Z,7.57
2022-11-14T00:51:56.142Z,7.35
2022-11-14T00:54:40.909Z,8.02
2022-11-14T00:57:25.716Z,8.70
2022-11-14T01:00:12.958Z,8.88
2022-11-14T01:02:58.328Z,9.02
2022-11-14T01:05:48.151Z,9.60
2022-11-14T01:08:33.254Z,9.65
2022-11-14T01:11:19.973Z,10.35
2022-11-14T01:14:08.042Z,9.80
2022-11-14T01:16:52.947Z,9.65
2022-11-14T01:19:37.682Z,10.23
2022-11-14T01:22:22.420Z,10.20
2022-11-14T01:25:07.440Z,9.68
2022-11-14T01:27:52.361Z,9.45
2022-11-14T01:30:37.388Z,8.90
2022-11-14T01:33:22.399Z,10.63
2022-11-14T01:36:07.683Z,10.10
2022-11-14T01:38:53.025Z,9.88
2022-11-14T01:41:37.824Z,9.05
2022-11-14T01:44:40.661Z,9.02
2022-11-14T01:47:27.319Z,9.27
2022-11-14T01:50:12.410Z,10.18
2022-11-14T01:52:57.305Z,9.13
2022-11-14T01:55:42.124Z,9.52
2022-11-14T01:58:28.033Z,9.77
2022-11-14T02:01:13.361Z,9.77
2022-11-14T02:03:59.712Z,9.93
2022-11-14T02:06:45.798Z,10.52
2022-11-14T02:09:32.067Z,10.52
2022-11-14T02:12:18.152Z,9.40
2022-11-14T02:15:03.710Z,9.65
2022-11-14T02:17:48.811Z,9.77
2022-11-14T02:20:34.939Z,9.82
2022-11-14T02:23:27.061Z,8.98
2022-11-14T02:26:11.983Z,9.00
2022-11-14T02:28:57.503Z,10.32
2022-11-14T02:31:42.185Z,10.38
2022-11-14T02:34:27.149Z,9.70
2022-11-14T02:37:11.858Z,10.60
2022-11-14T02:39:56.695Z,10.15
2022-11-14T02:42:41.688Z,10.82
2022-11-14T02:45:26.467Z,11.27
2022-11-14T02:48:11.334Z,10.80
2022-11-14T02:50:56.102Z,10.25
2022-11-14T02:53:40.901Z,10.52
2022-11-14T02:56:25.690Z,10.60
2022-11-14T02:59:10.509Z,10.23
2022-11-14T03:01:55.332Z,11.10
2022-11-14T03:04:39.961Z,11.38
2022-11-14T03:07:24.780Z,10.40
2022-11-14T03:10:10.268Z,11.50
2022-11-14T03:12:55.835Z,11.23
2022-11-14T03:15:40.599Z,11.68
2022-11-14T03:18:25.462Z,12.45
2022-11-14T03:21:15.036Z,11.65
2022-11-14T03:24:00.049Z,11.88
2022-11-14T03:26:44.889Z,11.27
2022-11-14T03:29:29.735Z,11.00
2022-11-14T03:32:14.958Z,11.40
2022-11-14T03:34:59.669Z,12.45
2022-11-14T03:37:44.414Z,11.35
2022-11-14T03:40:29.293Z,11.65
2022-11-14T03:43:14.028Z,12.20
2022-11-14T03:45:59.944Z,12.15
2022-11-14T03:56:45.270Z,12.00
2022-11-14T03:59:30.258Z,11.93
2022-11-14T04:06:09.115Z,10.45
2022-11-14T04:08:56.554Z,10.52
2022-11-14T04:11:41.247Z,11.38
2022-11-14T04:14:26.130Z,11.27
2022-11-14T04:17:10.907Z,11.98
2022-11-14T04:19:55.855Z,11.80
2022-11-14T04:22:40.655Z,11.80
2022-11-14T04:25:25.481Z,12.68
2022-11-14T04:28:10.357Z,12.48
2022-11-14T04:30:55.245Z,12.38
2022-11-14T04:33:40.411Z,12.95
2022-11-14T04:36:25.078Z,12.82
2022-11-14T04:39:09.888Z,14.48
2022-11-14T04:41:54.577Z,14.30
2022-11-14T04:44:39.344Z,15.38
2022-11-14T04:47:24.321Z,15.02
2022-11-14T04:50:09.464Z,13.93
2022-11-14T04:52:54.275Z,13.52
2022-11-14T04:55:38.946Z,14.88
2022-11-14T04:58:23.855Z,15.35
2022-11-14T05:01:12.049Z,14.95
2022-11-14T05:03:56.959Z,14.82
2022-11-14T05:06:41.800Z,14.52
2022-11-14T05:09:26.618Z,14.93
2022-11-14T05:12:11.475Z,14.15
2022-11-14T05:14:56.262Z,15.48
2022-11-14T05:17:41.002Z,15.73
2022-11-14T05:20:25.783Z,14.70
2022-11-14T05:23:18.332Z,14.30
2022-11-14T05:26:04.189Z,14.50
2022-11-14T05:28:49.116Z,14.50
2022-11-14T05:31:33.953Z,15.15
2022-11-14T05:34:18.909Z,15.32
2022-11-14T05:37:04.110Z,15.30
2022-11-14T05:39:48.967Z,14.98
2022-11-14T05:42:33.729Z,14.93
2022-11-14T05:45:18.606Z,15.00
2022-11-14T05:48:03.515Z,16.40
2022-11-14T05:50:48.464Z,15.75
2022-11-14T05:53:33.529Z,15.35
2022-11-14T05:56:18.413Z,16.48
2022-11-14T05:59:03.341Z,15.30
2022-11-14T06:01:48.275Z,16.13
2022-11-14T06:04:33.225Z,15.50
2022-11-14T06:07:20.319Z,15.57
2022-11-14T06:10:05.927Z,14.90
2022-11-14T06:12:51.222Z,15.98
2022-11-14T06:15:36.131Z,16.10
2022-11-14T06:18:21.027Z,16.08
2022-11-14T06:21:05.652Z,16.08
2022-11-14T06:23:50.925Z,16.98
2022-11-14T06:26:35.980Z,17.45
2022-11-14T06:29:20.971Z,16.00
2022-11-14T06:32:06.534Z,17.35
2022-11-14T06:34:51.587Z,16.67
2022-11-14T06:37:37.428Z,16.02
2022-11-14T06:40:22.678Z,16.23
2022-11-14T06:43:07.439Z,16.13
2022-11-14T06:45:55.815Z,16.42
2022-11-14T06:48:40.965Z,16.50
2022-11-14T06:51:25.898Z,15.20
2022-11-14T06:54:13.599Z,15.25
2022-11-14T06:56:58.482Z,15.30
2022-11-14T06:59:43.486Z,15.85
2022-11-14T07:02:28.428Z,14.93
2022-11-14T07:05:13.426Z,13.90
2022-11-14T07:07:58.147Z,14.02
2022-11-14T07:10:43.226Z,14.70
2022-11-14T07:13:27.950Z,14.93
2022-11-14T07:16:12.715Z,13.52
2022-11-14T07:18:58.391Z,14.57
2022-11-14T07:21:43.442Z,13.65
2022-11-14T07:24:28.505Z,12.93
2022-11-14T07:27:13.311Z,13.68
2022-11-14T07:29:58.153Z,13.27
2022-11-14T07:32:42.953Z,11.25
2022-11-14T07:35:27.743Z,11.80
2022-11-14T07:38:12.422Z,12.45
2022-11-14T07:40:59.824Z,12.68
2022-11-14T07:43:45.129Z,12.75
2022-11-14T07:46:29.803Z,12.52
2022-11-14T07:49:14.572Z,12.02
2022-11-14T07:51:59.384Z,11.60
2022-11-14T07:54:44.110Z,12.63
2022-11-14T07:57:28.806Z,13.63
2022-11-14T08:00:14.067Z,12.27
2022-11-14T08:02:58.938Z,12.45
2022-11-14T08:05:43.776Z,11.55
2022-11-14T08:08:29.159Z,12.02
2022-11-14T08:11:23.055Z,11.90
2022-11-14T08:14:18.975Z,13.10
2022-11-14T08:17:03.854Z,11.25
2022-11-14T08:19:48.469Z,11.93
2022-11-14T08:22:33.723Z,11.15
2022-11-14T08:25:18.465Z,10.55
2022-11-14T08:28:03.613Z,10.27
2022-11-14T08:30:48.297Z,11.25
2022-11-14T08:33:33.114Z,10.57
2022-11-14T08:36:18.262Z,10.45
2022-11-14T08:39:03.555Z,10.00
2022-11-14T08:41:48.720Z,10.88
2022-11-14T08:44:33.457Z,10.43
2022-11-14T08:47:18.281Z,10.30
2022-11-14T08:50:03.230Z,10.30
2022-11-14T08:52:51.969Z,11.63
2022-11-14T08:55:36.729Z,9.95
2022-11-14T08:58:21.602Z,11.02
2022-11-14T09:01:07.282Z,9.77
2022-11-14T09:03:55.553Z,10.90
2022-11-14T09:06:46.381Z,10.82
2022-11-14T09:09:31.495Z,10.02
2022-11-14T09:12:17.567Z,9.93
2022-11-14T09:15:02.624Z,9.90
2022-11-14T09:17:47.538Z,10.18
2022-11-14T09:20:35.182Z,10.63
2022-11-14T09:23:25.366Z,9.70
2022-11-14T09:26:10.200Z,9.75
2022-11-14T09:28:55.154Z,8.63
2022-11-14T09:31:39.841Z,9.50
2022-11-14T09:34:24.743Z,9.63
2022-11-14T09:37:09.688Z,9.18
2022-11-14T09:39:54.765Z,9.35
2022-11-14T09:42:51.900Z,8.75
2022-11-14T09:45:40.294Z,8.68
2022-11-14T09:48:27.902Z,9.05
2022-11-14T09:51:23.564Z,8.75
2022-11-14T09:54:08.456Z,8.70
2022-11-14T09:56:53.989Z,9.23
2022-11-14T09:59:38.795Z,8.20
2022-11-14T10:02:37.884Z,9.25
2022-11-14T10:05:23.155Z,10.27
2022-11-14T10:08:34.312Z,10.65
2022-11-14T10:11:24.086Z,9.27
2022-11-14T10:14:18.397Z,8.40
2022-11-14T10:17:10.749Z,10.10
2022-11-14T10:20:00.800Z,8.57
2022-11-14T10:22:51.760Z,8.35
2022-11-14T10:25:45.933Z,8.80
2022-11-14T10:28:31.009Z,8.70
2022-11-14T10:31:19.143Z,9.70
2022-11-14T10:34:09.343Z,9.27
2022-11-14T10:36:54.565Z,8.93
2022-11-14T10:39:52.754Z,9.23
2022-11-14T10:42:39.654Z,8.13
2022-11-14T10:45:40.553Z,9.68
2022-11-14T10:48:30.339Z,9.77
2022-11-14T10:51:15.547Z,11.05
2022-11-14T10:54:06.845Z,9.77
2022-11-14T10:56:53.082Z,9.80
2022-11-14T10:59:38.142Z,9.65
2022-11-14T11:02:22.903Z,9.20
2022-11-14T11:05:17.790Z,8.65
2022-11-14T11:08:42.004Z,8.80
2022-11-14T11:11:29.605Z,9.15
2022-11-14T11:14:16.844Z,9.05
2022-11-14T11:17:11.073Z,8.40
2022-11-14T11:19:55.971Z,8.75
2022-11-14T11:22:42.353Z,8.60
2022-11-14T11:25:28.302Z,8.35
2022-11-14T11:28:20.498Z,8.38
2022-11-14T11:31:06.818Z,8.13
2022-11-14T11:33:52.039Z,7.50
2022-11-14T11:36:40.609Z,8.07
2022-11-14T11:39:29.567Z,8.45
2022-11-14T11:42:18.958Z,8.35
2022-11-14T11:45:05.562Z,8.48
2022-11-14T11:47:54.343Z,8.20
2022-11-14T11:50:40.310Z,9.80
2022-11-14T11:53:36.467Z,8.57
2022-11-14T11:56:24.178Z,8.60
2022-11-14T11:59:18.352Z,8.60
2022-11-14T12:02:23.391Z,7.80
2022-11-14T12:05:11.283Z,7.90
2022-11-14T12:07:59.163Z,8.30
2022-11-14T12:10:45.826Z,8.27
2022-11-14T12:13:31.560Z,7.13
2022-11-14T12:16:26.089Z,6.95
2022-11-14T12:19:29.549Z,7.82
2022-11-14T12:22:29.207Z,8.35
2022-11-14T12:25:23.306Z,7.72
2022-11-14T12:28:17.379Z,8.23
2022-11-14T12:31:05.255Z,7.75
2022-11-14T12:33:53.723Z,7.28
2022-11-14T12:36:39.782Z,7.75
2022-11-14T12:39:26.018Z,6.45
2022-11-14T12:42:16.003Z,7.60
2022-11-14T12:45:00.898Z,7.43
2022-11-14T12:48:04.588Z,7.10
2022-11-14T12:50:49.407Z,6.88
2022-11-14T12:53:38.221Z,8.55
2022-11-14T12:56:29.091Z,7.25
2022-11-14T12:59:28.884Z,7.45
2022-11-14T13:02:32.717Z,7.97
2022-11-14T13:05:29.587Z,7.78
2022-11-14T13:08:27.635Z,8.45
2022-11-14T13:11:53.256Z,8.00
2022-11-14T13:18:01.098Z,8.10
2022-11-14T13:21:05.026Z,7.03
2022-11-14T13:23:49.933Z,8.40
2022-11-14T13:26:34.666Z,8.13
2022-11-14T13:29:38.259Z,8.13
2022-11-14T13:32:42.391Z,8.18
2022-11-14T13:35:39.288Z,7.80
2022-11-14T13:38:27.323Z,8.48
2022-11-14T13:41:24.375Z,7.90
2022-11-14T13:44:18.236Z,7.53
2022-11-14T13:47:18.567Z,8.45
2022-11-14T13:50:26.840Z,8.18
2022-11-14T13:53:23.897Z,7.97
2022-11-14T13:56:16.792Z,8.45
2022-11-14T13:59:27.552Z,7.75
2022-11-14T14:02:47.881Z,7.88
2022-11-14T14:05:51.813Z,8.60
2022-11-14T14:08:42.779Z,8.50
2022-11-14T14:11:40.160Z,10.40
2022-11-14T14:15:00.105Z,8.52
2022-11-14T14:18:03.407Z,9.18
2022-11-14T14:20:52.880Z,11.73
2022-11-14T14:23:50.094Z,9.07
2022-11-14T14:26:55.742Z,8.98
2022-11-14T14:29:49.996Z,8.48
2022-11-14T14:32:34.867Z,8.95
2022-11-14T14:35:21.266Z,7.95
2022-11-14T14:38:10.778Z,8.05
2022-11-14T14:40:56.008Z,8.32
2022-11-14T14:43:41.786Z,8.00
2022-11-14T14:46:28.164Z,9.05
2022-11-14T14:49:18.150Z,9.05
2022-11-14T14:52:18.923Z,9.35
2022-11-14T14:55:06.535Z,7.90
2022-11-14T14:57:51.678Z,9.13
2022-11-14T15:00:36.486Z,9.50
2022-11-14T15:03:22.723Z,8.75
2022-11-14T15:06:22.146Z,8.45
2022-11-14T15:09:11.325Z,8.70
2022-11-14T15:11:58.611Z,8.35
2022-11-14T15:14:43.953Z,9.52
2022-11-14T15:17:34.524Z,8.93
2022-11-14T15:20:22.608Z,9.35
2022-11-14T15:23:10.623Z,10.93
2022-11-14T15:26:03.031Z,9.13
2022-11-14T15:28:48.045Z,8.68
2022-11-14T15:31:34.570Z,8.85
2022-11-14T15:34:30.040Z,8.35
2022-11-14T15:37:16.215Z,7.30
2022-11-14T15:40:20.371Z,9.45
2022-11-14T15:43:25.370Z,9.00
2022-11-14T15:46:34.199Z,7.80
2022-11-14T15:49:21.244Z,8.13
2022-11-14T15:52:17.057Z,8.25
2022-11-14T15:55:02.534Z,7.68
2022-11-14T15:57:52.001Z,7.93
2022-11-14T16:00:52.504Z,8.00
2022-11-14T16:03:37.388Z,7.82
2022-11-14T16:06:22.309Z,7.60
2022-11-14T16:09:11.385Z,7.32
2022-11-14T16:11:56.316Z,6.97
2022-11-14T16:14:41.276Z,7.80
2022-11-14T16:17:26.186Z,8.32
2022-11-14T16:20:16.067Z,7.28
2022-11-14T16:23:01.476Z,6.75
2022-11-14T16:25:46.573Z,6.22
2022-11-14T16:28:31.438Z,5.93
2022-11-14T16:31:17.272Z,6.30
2022-11-14T16:34:02.100Z,6.18
2022-11-14T16:36:48.509Z,5.95
2022-11-14T16:39:33.405Z,7.00
2022-11-14T16:42:18.142Z,6.53
2022-11-14T16:45:03.447Z,6.88
2022-11-14T16:47:49.751Z,6.50
2022-11-14T16:50:34.641Z,6.47
2022-11-14T16:53:19.669Z,6.85
2022-11-14T16:56:05.089Z,6.97
2022-11-14T16:58:53.645Z,7.20
2022-11-14T17:01:38.546Z,7.05
2022-11-14T17:04:23.346Z,7.72
2022-11-14T17:07:09.140Z,6.35
2022-11-14T17:09:53.922Z,6.93
2022-11-14T17:12:38.757Z,8.27
2022-11-14T17:15:23.472Z,7.28
2022-11-14T17:18:08.262Z,6.97
2022-11-14T17:20:53.434Z,7.40
2022-11-14T17:23:38.295Z,6.22
2022-11-14T17:26:23.302Z,7.93
2022-11-14T17:29:08.556Z,7.43
2022-11-14T17:31:53.870Z,7.72
2022-11-14T17:34:38.849Z,9.48
2022-11-14T17:37:23.525Z,8.07
2022-11-14T17:40:14.223Z,9.70
2022-11-14T17:43:00.563Z,10.38
2022-11-14T17:45:53.236Z,7.25
2022-11-14T17:48:38.376Z,8.07
2022-11-14T17:51:23.313Z,8.35
2022-11-14T17:54:08.950Z,7.85
2022-11-14T17:56:55.180Z,7.97
2022-11-14T17:59:41.308Z,7.72
2022-11-14T18:02:26.347Z,7.68
2022-11-14T18:05:11.278Z,9.98
2022-11-14T18:07:56.130Z,8.68
2022-11-14T18:10:40.921Z,9.07
2022-11-14T18:13:25.792Z,7.53
2022-11-14T18:16:12.040Z,8.02
2022-11-14T18:18:56.670Z,8.60
2022-11-14T18:21:43.193Z,15.40
2022-11-14T18:24:28.054Z,10.43
2022-11-14T18:27:14.067Z,8.52
2022-11-14T18:30:13.408Z,7.18
2022-11-14T18:33:03.717Z,8.13
2022-11-14T18:35:58.425Z,7.53
2022-11-14T18:38:44.206Z,8.10
2022-11-14T18:41:29.386Z,10.38
2022-11-14T18:44:14.074Z,6.43
2022-11-14T18:46:59.210Z,8.05
2022-11-14T18:49:44.960Z,6.18
2022-11-14T18:52:29.964Z,6.47
2022-11-14T18:55:14.862Z,7.20
2022-11-14T18:58:03.125Z,6.13
2022-11-14T19:00:48.318Z,6.53
2022-11-14T19:03:33.093Z,5.80
2022-11-14T19:06:18.364Z,7.00
2022-11-14T19:09:11.196Z,10.27
2022-11-14T19:12:15.384Z,14.63
2022-11-14T19:15:02.110Z,11.63
2022-11-14T19:17:47.492Z,7.82
2022-11-14T19:20:32.289Z,8.18
2022-11-14T19:23:17.272Z,8.45
2022-11-14T19:26:02.321Z,5.38
2022-11-14T19:28:47.985Z,9.48
2022-11-14T19:31:33.178Z,5.03
2022-11-14T19:34:18.213Z,5.65
2022-11-14T19:37:02.936Z,7.85
2022-11-14T19:39:58.571Z,7.13
2022-11-14T19:42:46.542Z,6.45
2022-11-14T19:45:33.457Z,5.88
2022-11-14T19:48:18.759Z,6.13
2022-11-14T19:51:05.188Z,6.50
2022-11-14T19:53:50.143Z,6.00
2022-11-14T19:56:35.370Z,6.40
2022-11-14T19:59:24.406Z,5.47
2022-11-14T20:02:13.454Z,5.57
2022-11-14T20:04:59.907Z,6.25
2022-11-14T20:07:44.849Z,5.68
2022-11-14T20:10:29.595Z,4.90
2022-11-14T20:13:14.780Z,5.07
2022-11-14T20:16:02.612Z,5.32
2022-11-14T20:18:57.457Z,5.70
2022-11-14T20:21:44.059Z,6.30
2022-11-14T20:24:29.430Z,7.38
2022-11-14T20:27:14.784Z,6.90
2022-11-14T20:29:59.801Z,7.05
2022-11-14T20:32:45.566Z,5.03
2022-11-14T20:35:32.836Z,5.63
2022-11-14T20:38:17.780Z,9.73
2022-11-14T20:41:02.813Z,6.80
2022-11-14T20:43:47.924Z,6.32
2022-11-14T20:46:32.849Z,5.78
2022-11-14T20:49:17.780Z,5.63
2022-11-14T20:52:04.818Z,5.00
2022-11-14T20:54:49.619Z,5.45
2022-11-14T20:57:37.520Z,4.70
2022-11-14T21:00:22.919Z,5.60
2022-11-14T21:03:10.916Z,5.25
2022-11-14T21:05:56.085Z,4.78
2022-11-14T21:08:41.173Z,4.85
2022-11-14T21:11:26.253Z,5.40
2022-11-14T21:14:11.478Z,5.13
2022-11-14T21:16:56.512Z,4.57
2022-11-14T21:19:41.512Z,5.85
2022-11-14T21:22:26.490Z,5.30
2022-11-14T21:25:11.203Z,5.20
2022-11-14T21:27:56.235Z,5.40
2022-11-14T21:30:41.378Z,4.93
2022-11-14T21:33:27.736Z,5.43
2022-11-14T21:36:42.826Z,5.03
2022-11-14T21:39:18.668Z,5.28
2022-11-14T21:42:03.708Z,5.43
2022-11-14T21:44:48.555Z,5.30
2022-11-14T21:47:33.976Z,5.30
2022-11-14T21:50:18.848Z,5.03
2022-11-14T21:53:03.594Z,4.80
2022-11-14T21:55:49.037Z,5.03
2022-11-14T21:58:34.075Z,5.43
2022-11-14T22:01:38.705Z,5.38
2022-11-14T22:04:24.201Z,4.65
2022-11-14T22:07:09.401Z,5.10
2022-11-14T22:09:54.602Z,4.78
2022-11-14T22:12:39.542Z,4.40
2022-11-14T22:15:24.383Z,4.70
2022-11-14T22:18:09.314Z,4.43
2022-11-14T22:20:54.854Z,4.75
2022-11-14T22:23:40.023Z,6.13
2022-11-14T22:26:24.711Z,5.25
2022-11-14T22:29:10.037Z,4.60
2022-11-14T22:31:56.565Z,4.20
2022-11-14T22:34:41.633Z,4.65
2022-11-14T22:37:26.717Z,4.28
2022-11-14T22:40:15.152Z,5.07
2022-11-14T22:43:00.335Z,4.60
2022-11-14T22:45:50.776Z,5.38
2022-11-14T22:48:35.807Z,3.47
2022-11-14T22:51:28.054Z,4.35
2022-11-14T22:54:14.094Z,4.47
2022-11-14T22:56:58.919Z,4.25
2022-11-14T22:59:43.776Z,4.38
2022-11-14T23:02:28.609Z,3.88
2022-11-14T23:05:13.318Z,4.47
2022-11-14T23:07:58.080Z,4.50
2022-11-14T23:10:43.135Z,4.18
2022-11-14T23:13:28.308Z,4.20
2022-11-14T23:16:14.835Z,4.97
2022-11-14T23:19:00.962Z,4.55
2022-11-14T23:21:45.982Z,4.85
2022-11-14T23:24:30.916Z,5.03
2022-11-14T23:27:15.719Z,5.00
2022-11-14T23:30:00.617Z,4.85
2022-11-14T23:32:45.542Z,5.32
2022-11-14T23:35:30.432Z,4.93
2022-11-14T23:38:15.325Z,4.80
2022-11-14T23:41:01.375Z,4.28
2022-11-14T23:43:46.789Z,4.18
2022-11-14T23:46:31.584Z,4.20
2022-11-14T23:49:16.561Z,5.25
2022-11-14T23:52:01.308Z,4.75
2022-11-14T23:54:46.145Z,4.78
2022-11-14T23:57:31.089Z,5.95
